Kohju — H3XI — position and weather

sailwx.info

Track history (hours):
 
Tides and Currents Weather Stations Pressure Air Temp Water Temp Dewpoint Dewpoint Depression Visibility Wind Speed Wind Dir Waves Ship Positions

Kohju

Last reported at 2015-Aug-26 17:24 UTC. Time now 2015-Aug-29 16:56 UTC.
Position N 21°54' E 114°23'.

Length 289 m; draft 8.1 m.

Type: Cargo ship. MMSI: 357349000.

Date/timePositionNaut miles runAvg speedWind from/ knotsBaromVisibWave heightAir tempDewpointWater temp
2015-Aug-26 17:24N 21°54' E 114°23'1011.3
2015-Aug-26 16:29N 22°04' E 114°24'10 0.7
2015-Aug-26 02:12N 22°09' E 114°15'6 8.7
2015-Aug-26 01:32N 22°09' E 114°21'1211.4
2015-Aug-26 00:32N 22°10' E 114°33'18511.3
2015-Aug-25 08:08N 23°25' E 117°37'2212.2
2015-Aug-25 06:18N 23°38' E 117°57'1012.7
2015-Aug-25 05:30N 23°44' E 118°06'5612.9
2015-Aug-25 01:09N 24°18' E 118°55'  
2015-Aug-17 17:34N 36°08' E 122°11'  
Track history (hours):
 
Tides and Currents Weather Stations Pressure Air Temp Water Temp Dewpoint Dewpoint Depression Visibility Wind Speed Wind Dir Waves Ship Positions

Kohju

Last reported at 2015-Aug-26 17:24 UTC. Time now 2015-Aug-29 16:56 UTC.
Position N 21°54' E 114°23'.

Length 289 m; draft 8.1 m.

Type: Cargo ship. MMSI: 357349000.

Date/timePositionNaut miles runAvg speedWind from/ knotsBaromVisibWave heightAir tempDewpointWater temp
2015-Aug-26 17:24N 21°54' E 114°23'1011.3
2015-Aug-26 16:29N 22°04' E 114°24'10 0.7
2015-Aug-26 02:12N 22°09' E 114°15'6 8.7
2015-Aug-26 01:32N 22°09' E 114°21'1211.4
2015-Aug-26 00:32N 22°10' E 114°33'18511.3
2015-Aug-25 08:08N 23°25' E 117°37'2212.2
2015-Aug-25 06:18N 23°38' E 117°57'1012.7
2015-Aug-25 05:30N 23°44' E 118°06'5612.9
2015-Aug-25 01:09N 24°18' E 118°55'  
2015-Aug-17 17:34N 36°08' E 122°11'  

Dump ship's entire track history